Hoosick Junction, New York
Current Conditions -  °F | °C
As of 11:31 PM on Wednesday 26 Nov 2014 (Local Time) from KDDH Reporting Station
Light Snow Light Snow  
Wind Chill: -2°   Ceiling: 1800
Heat Index: -2°   Visibility: 2.5mi
Dew Point: -3°   Wind: 3mph
Humidity: 89%   Direction: 320°NW
Pressure: 29.83"   Gusts: NA
Location:  42.9226°N, 73.3603°W
Report Text: KDDH 270431Z AUTO 32003KT 2 1/2SM -SN BR FEW008 OVC018 M02/M03 A2983 RMK AO2 P0001 T10171033
Loading
Personal Weather Stations






























Interactive Weather Map New forecast layout! Learn more

10-Day Weather Forecast

Advertisements
Track Severe Weather on mobile